Time;durP1;ratioP1;P1;durP2;ratioP2;P2;SDS_P1;SDS_P2;PMS_P1;PMS_P2;Temp;Humidity;BMP_temperature;BMP_pressure;BME280_temperature;BME280_humidity;BME280_pressure;Samples;Min_cycle;Max_cycle;Signal;HPM_P1;HPM_P2
2023/07/25 00:00:33;;;;;;;3.57;3.23;;;23.90;46.40;;;;;;5071592;28;20319;-51
2023/07/25 00:02:59;;;;;;;4.63;3.03;;;23.90;46.50;;;;;;5072091;28;20435;-52
2023/07/25 00:05:25;;;;;;;3.47;3.07;;;23.90;46.00;;;;;;5071834;28;20770;-54
2023/07/25 00:07:50;;;;;;;6.70;2.70;;;23.80;45.80;;;;;;5071814;28;20398;-50
2023/07/25 00:10:18;;;;;;;6.63;3.13;;;23.80;45.90;;;;;;5071385;28;20509;-53
2023/07/25 00:12:44;;;;;;;3.70;3.20;;;23.80;46.10;;;;;;5071658;28;20283;-51
2023/07/25 00:15:11;;;;;;;4.77;2.80;;;23.80;45.80;;;;;;5071991;28;20392;-53
2023/07/25 00:17:37;;;;;;;3.67;3.13;;;23.80;45.80;;;;;;5071812;28;20891;-54
2023/07/25 00:20:03;;;;;;;4.77;3.20;;;23.80;45.90;;;;;;5071373;28;20399;-52
2023/07/25 00:22:29;;;;;;;4.50;3.33;;;23.80;45.90;;;;;;5071934;28;20431;-52
2023/07/25 00:24:54;;;;;;;4.10;3.07;;;23.90;45.90;;;;;;5071640;28;20965;-51
2023/07/25 00:27:22;;;;;;;3.47;3.00;;;23.90;45.30;;;;;;5071401;28;20226;-51
2023/07/25 00:29:51;;;;;;;5.50;3.00;;;23.90;45.40;;;;;;5071279;28;20426;-51
2023/07/25 00:32:17;;;;;;;3.50;2.50;;;23.80;45.70;;;;;;5071452;28;20714;-53
2023/07/25 00:34:43;;;;;;;4.27;3.30;;;23.80;45.50;;;;;;5071431;28;20410;-54
2023/07/25 00:37:09;;;;;;;5.00;3.93;;;23.70;45.80;;;;;;5070164;28;20176;-52
2023/07/25 00:39:34;;;;;;;4.90;3.80;;;23.70;45.70;;;;;;5071411;28;20188;-54
2023/07/25 00:42:00;;;;;;;4.30;3.80;;;23.70;45.90;;;;;;5074951;28;20239;-52
2023/07/25 00:44:26;;;;;;;4.90;3.60;;;23.70;45.60;;;;;;5075051;28;20177;-53
2023/07/25 00:46:52;;;;;;;3.33;3.00;;;23.70;45.50;;;;;;5075218;28;20168;-50
2023/07/25 00:49:18;;;;;;;4.27;3.47;;;23.70;45.60;;;;;;5074778;28;20206;-53
2023/07/25 00:51:43;;;;;;;5.20;3.50;;;23.60;45.70;;;;;;5074880;28;20239;-51
2023/07/25 00:54:09;;;;;;;3.17;2.80;;;23.60;45.50;;;;;;5074898;28;20771;-53
2023/07/25 00:56:35;;;;;;;4.60;3.13;;;23.60;45.50;;;;;;5074857;28;20407;-53
2023/07/25 00:59:01;;;;;;;7.67;4.37;;;23.60;45.60;;;;;;5074955;28;20410;-53
2023/07/25 01:01:28;;;;;;;5.23;3.57;;;23.70;45.80;;;;;;5074587;28;20434;-53
2023/07/25 01:03:55;;;;;;;4.77;3.87;;;23.60;45.60;;;;;;5074942;28;20426;-53
2023/07/25 01:06:21;;;;;;;5.70;3.33;;;23.60;45.70;;;;;;5074858;28;20939;-52
2023/07/25 01:08:52;;;;;;;5.70;3.40;;;23.60;45.60;;;;;;5074986;28;20434;-53
2023/07/25 01:11:18;;;;;;;4.17;3.60;;;23.60;45.50;;;;;;5074327;28;20427;-52
2023/07/25 01:13:45;;;;;;;6.70;3.80;;;23.50;45.60;;;;;;5074622;28;20438;-50
2023/07/25 01:16:14;;;;;;;5.10;3.20;;;23.60;45.50;;;;;;5074701;28;20407;-51
2023/07/25 01:18:41;;;;;;;4.07;3.67;;;23.60;45.70;;;;;;5074567;28;20903;-54
2023/07/25 01:21:08;;;;;;;4.43;3.37;;;23.60;45.80;;;;;;5074136;28;20450;-54
2023/07/25 01:23:36;;;;;;;3.80;2.93;;;23.50;45.80;;;;;;5074363;28;20881;-52
2023/07/25 01:26:02;;;;;;;5.60;3.57;;;23.50;45.90;;;;;;5074639;28;20821;-53
2023/07/25 01:28:28;;;;;;;6.47;3.47;;;23.50;45.70;;;;;;5074175;28;20433;-53
2023/07/25 01:30:53;;;;;;;3.97;3.57;;;23.50;45.40;;;;;;5074040;28;20237;-53
2023/07/25 01:33:19;;;;;;;4.53;3.10;;;23.50;45.40;;;;;;5074114;28;20451;-52
2023/07/25 01:35:45;;;;;;;3.47;3.00;;;23.50;45.40;;;;;;5074244;28;20214;-52
2023/07/25 01:38:11;;;;;;;4.73;3.27;;;23.50;45.40;;;;;;5074092;28;20169;-50
2023/07/25 01:40:40;;;;;;;5.90;3.57;;;23.50;45.10;;;;;;5073790;28;20668;-53
2023/07/25 01:43:09;;;;;;;4.77;2.90;;;23.50;45.30;;;;;;5073917;28;20172;-52
2023/07/25 01:45:36;;;;;;;6.13;2.90;;;23.40;45.10;;;;;;5073921;28;20411;-53
2023/07/25 01:48:02;;;;;;;3.50;2.80;;;23.40;45.30;;;;;;5073977;28;20407;-51
2023/07/25 01:50:28;;;;;;;5.20;3.00;;;23.40;45.30;;;;;;5073593;28;20464;-52
2023/07/25 01:52:54;;;;;;;2.90;2.50;;;23.40;45.10;;;;;;5072829;28;20520;-52
2023/07/25 01:55:20;;;;;;;5.43;3.30;;;23.40;45.00;;;;;;5073845;28;20403;-50
2023/07/25 01:57:46;;;;;;;3.77;3.23;;;23.40;45.20;;;;;;5074085;28;20493;-53
2023/07/25 02:00:12;;;;;;;3.63;2.80;;;23.30;45.10;;;;;;5073481;28;20429;-53
2023/07/25 02:02:38;;;;;;;7.93;3.30;;;23.30;45.00;;;;;;5073785;28;20399;-50
2023/07/25 02:05:04;;;;;;;4.33;3.10;;;23.30;45.20;;;;;;5073713;28;20418;-52
2023/07/25 02:07:30;;;;;;;3.13;2.60;;;23.20;45.00;;;;;;5073697;28;20173;-53
2023/07/25 02:09:56;;;;;;;3.90;3.13;;;23.20;45.20;;;;;;5073292;28;20763;-52
2023/07/25 02:12:22;;;;;;;3.43;3.13;;;23.20;45.20;;;;;;5073489;28;20461;-53
2023/07/25 02:14:48;;;;;;;5.63;3.13;;;23.10;45.00;;;;;;5073480;28;20184;-53
2023/07/25 02:17:14;;;;;;;3.47;2.97;;;23.10;45.10;;;;;;5073656;28;20478;-51
2023/07/25 02:19:40;;;;;;;4.33;3.73;;;23.10;45.00;;;;;;5073301;28;20941;-52
2023/07/25 02:22:06;;;;;;;4.30;2.87;;;23.10;45.20;;;;;;5073305;28;20668;-53
2023/07/25 02:24:32;;;;;;;10.03;3.83;;;23.10;45.10;;;;;;5073275;28;20173;-53
2023/07/25 02:26:58;;;;;;;5.03;2.70;;;23.10;45.00;;;;;;5073270;28;20407;-51
2023/07/25 02:29:24;;;;;;;5.90;3.53;;;23.10;45.20;;;;;;5073017;28;20402;-52
2023/07/25 02:31:50;;;;;;;3.43;3.13;;;23.00;44.90;;;;;;5073107;28;20863;-52
2023/07/25 02:34:16;;;;;;;4.83;3.20;;;23.00;44.90;;;;;;5072098;28;20169;-52
2023/07/25 02:36:42;;;;;;;4.43;2.63;;;22.90;45.20;;;;;;5073365;28;20435;-52
2023/07/25 02:39:09;;;;;;;6.00;2.70;;;22.90;45.30;;;;;;5073113;28;20452;-51
2023/07/25 02:41:35;;;;;;;3.43;2.87;;;22.90;45.20;;;;;;5072791;28;20419;-52
2023/07/25 02:44:03;;;;;;;5.03;3.30;;;22.80;45.30;;;;;;5072951;28;20411;-52
2023/07/25 02:46:29;;;;;;;8.80;3.40;;;22.80;45.20;;;;;;5072940;28;20410;-50
2023/07/25 02:48:55;;;;;;;6.43;3.13;;;22.80;45.20;;;;;;5072749;28;20414;-52
2023/07/25 02:51:20;;;;;;;3.83;3.10;;;22.80;45.60;;;;;;5072794;28;20442;-52
2023/07/25 02:53:46;;;;;;;4.20;3.57;;;22.80;46.20;;;;;;5073013;28;20609;-50
2023/07/25 02:56:12;;;;;;;4.70;3.47;;;22.80;45.50;;;;;;5072647;28;20180;-52
2023/07/25 02:58:38;;;;;;;3.90;3.23;;;22.80;45.60;;;;;;5073041;28;20261;-52
2023/07/25 03:01:04;;;;;;;5.43;3.43;;;22.80;45.60;;;;;;5072454;28;20210;-52
2023/07/25 03:03:29;;;;;;;7.13;3.30;;;22.80;45.60;;;;;;5072450;28;20413;-50
2023/07/25 03:05:55;;;;;;;6.60;3.70;;;22.80;45.60;;;;;;5072751;28;20172;-53
2023/07/25 03:08:21;;;;;;;3.13;2.83;;;22.80;45.50;;;;;;5072657;28;20259;-52
2023/07/25 03:10:47;;;;;;;4.70;3.40;;;22.80;45.60;;;;;;5072226;28;20254;-52
2023/07/25 03:13:13;;;;;;;9.27;3.60;;;22.80;45.60;;;;;;5072524;28;20236;-54
2023/07/25 03:15:39;;;;;;;4.10;3.70;;;22.70;45.80;;;;;;5072709;28;20593;-51
2023/07/25 03:18:05;;;;;;;8.73;3.90;;;22.80;45.80;;;;;;5072388;28;20816;-54
2023/07/25 03:20:30;;;;;;;6.70;3.43;;;22.70;45.90;;;;;;5072119;28;20513;-51
2023/07/25 03:22:56;;;;;;;5.70;3.67;;;22.80;46.00;;;;;;5072439;28;20414;-52
2023/07/25 03:25:22;;;;;;;5.90;3.60;;;22.80;46.10;;;;;;5072227;28;20222;-54
2023/07/25 03:27:48;;;;;;;13.63;2.80;;;22.90;46.00;;;;;;5073059;28;20422;-52
2023/07/25 03:30:14;;;;;;;3.17;2.60;;;22.80;45.90;;;;;;5072131;28;20955;-51
2023/07/25 03:32:40;;;;;;;5.03;3.37;;;22.80;46.00;;;;;;5072111;28;20199;-54
2023/07/25 03:35:06;;;;;;;6.27;3.17;;;22.90;46.30;;;;;;5072598;28;20495;-51
2023/07/25 03:37:32;;;;;;;8.67;4.20;;;22.90;46.10;;;;;;5072303;28;20659;-52
2023/07/25 03:39:58;;;;;;;4.70;3.20;;;22.90;46.00;;;;;;5072037;28;20486;-53
2023/07/25 03:42:23;;;;;;;7.03;3.77;;;22.90;45.70;;;;;;5072523;28;20260;-53
2023/07/25 03:44:50;;;;;;;4.40;3.07;;;22.90;45.70;;;;;;5072410;28;20510;-51
2023/07/25 03:47:16;;;;;;;5.03;2.63;;;22.90;45.40;;;;;;5072461;28;20422;-51
2023/07/25 03:49:42;;;;;;;4.30;2.90;;;22.90;45.70;;;;;;5072129;28;20748;-54
2023/07/25 03:52:08;;;;;;;4.40;3.60;;;22.90;46.00;;;;;;5072552;28;20587;-51
2023/07/25 03:54:34;;;;;;;3.93;3.07;;;22.90;46.20;;;;;;5072112;28;20570;-53
2023/07/25 03:57:01;;;;;;;4.93;3.63;;;22.90;46.10;;;;;;5072167;28;20423;-53
2023/07/25 03:59:27;;;;;;;5.17;3.30;;;22.90;46.10;;;;;;5071948;28;20657;-50
2023/07/25 04:01:53;;;;;;;4.87;3.33;;;23.00;46.20;;;;;;5071859;28;20430;-52
2023/07/25 04:04:18;;;;;;;4.80;3.83;;;23.00;46.20;;;;;;5072183;28;20255;-55
2023/07/25 04:06:44;;;;;;;5.97;3.73;;;23.00;45.70;;;;;;5072235;28;20267;-55
2023/07/25 04:09:10;;;;;;;6.03;4.20;;;22.90;45.40;;;;;;5071836;28;20168;-51
2023/07/25 04:11:36;;;;;;;4.43;3.67;;;22.90;45.70;;;;;;5071838;28;20279;-53
2023/07/25 04:14:02;;;;;;;6.60;4.23;;;22.90;45.90;;;;;;5071977;28;20189;-53
2023/07/25 04:16:28;;;;;;;5.80;3.93;;;22.90;46.10;;;;;;5075223;28;20183;-51
2023/07/25 04:18:54;;;;;;;6.90;4.00;;;22.90;46.00;;;;;;5076078;28;20493;-53
2023/07/25 04:21:20;;;;;;;6.10;3.93;;;23.00;46.00;;;;;;5075892;28;20423;-54
2023/07/25 04:23:46;;;;;;;6.00;3.80;;;23.00;45.60;;;;;;5075770;28;20824;-51
2023/07/25 04:26:12;;;;;;;5.50;4.10;;;23.00;45.80;;;;;;5076144;28;20169;-50
2023/07/25 04:28:37;;;;;;;5.50;3.80;;;23.00;46.00;;;;;;5075770;28;20925;-53
2023/07/25 04:31:03;;;;;;;5.10;4.37;;;23.00;46.90;;;;;;5075430;28;20195;-51
2023/07/25 04:33:29;;;;;;;9.63;4.23;;;23.00;46.00;;;;;;5075581;28;20283;-54
2023/07/25 04:35:55;;;;;;;7.03;3.70;;;23.10;46.20;;;;;;5076013;28;20177;-52
2023/07/25 04:38:20;;;;;;;4.80;3.70;;;23.10;46.10;;;;;;5075525;28;20663;-53
2023/07/25 04:40:46;;;;;;;7.03;4.20;;;23.20;46.00;;;;;;5075269;28;20237;-54
2023/07/25 04:43:12;;;;;;;9.30;4.07;;;23.20;46.10;;;;;;5075390;28;20937;-54
2023/07/25 04:45:38;;;;;;;4.10;3.70;;;23.20;46.80;;;;;;5075418;28;20177;-50
2023/07/25 04:48:05;;;;;;;8.93;5.23;;;23.20;45.70;;;;;;5075732;28;20513;-52
2023/07/25 04:50:31;;;;;;;6.90;4.20;;;23.30;46.40;;;;;;5075144;28;20796;-53
2023/07/25 04:52:56;;;;;;;5.07;3.47;;;23.30;46.60;;;;;;5075037;28;20443;-51
2023/07/25 04:55:22;;;;;;;7.70;5.03;;;23.40;46.50;;;;;;5075351;28;20175;-50
2023/07/25 04:57:51;;;;;;;11.00;3.50;;;23.40;46.60;;;;;;5074938;28;20172;-54
2023/07/25 05:00:17;;;;;;;7.00;3.97;;;23.50;46.70;;;;;;5074774;28;20427;-52
2023/07/25 05:02:43;;;;;;;8.50;4.10;;;23.50;46.20;;;;;;5074976;28;20484;-50
2023/07/25 05:05:09;;;;;;;8.40;4.47;;;23.50;46.10;;;;;;5074911;28;20408;-53
2023/07/25 05:07:35;;;;;;;3.90;3.47;;;23.50;46.00;;;;;;5074753;28;20176;-53
2023/07/25 05:10:01;;;;;;;5.67;3.87;;;23.50;45.50;;;;;;5074527;28;20497;-51
2023/07/25 05:12:26;;;;;;;5.63;4.07;;;23.40;45.40;;;;;;5074648;28;20443;-54
2023/07/25 05:14:52;;;;;;;4.33;3.93;;;23.50;45.30;;;;;;5074498;28;20180;-52
2023/07/25 05:17:18;;;;;;;9.53;3.87;;;23.40;45.20;;;;;;5074646;28;20763;-51
2023/07/25 05:19:44;;;;;;;5.10;4.20;;;23.40;45.20;;;;;;5074361;28;20581;-51
2023/07/25 05:22:09;;;;;;;5.73;3.20;;;23.40;45.90;;;;;;5074472;28;20192;-53
2023/07/25 05:24:36;;;;;;;7.60;4.10;;;23.40;46.30;;;;;;5074467;28;20533;-52
2023/07/25 05:27:02;;;;;;;7.70;3.90;;;23.50;46.30;;;;;;5073249;28;20181;-51
2023/07/25 05:29:27;;;;;;;6.13;3.47;;;23.50;45.80;;;;;;5074051;28;20414;-51
2023/07/25 05:31:53;;;;;;;4.63;3.70;;;23.50;45.20;;;;;;5074387;28;20462;-52
2023/07/25 05:34:19;;;;;;;8.80;4.07;;;23.50;45.30;;;;;;5074243;28;20175;-52
2023/07/25 05:36:45;;;;;;;8.90;4.13;;;23.50;45.50;;;;;;5074335;28;20172;-51
2023/07/25 05:39:11;;;;;;;6.10;5.10;;;23.50;45.50;;;;;;5074112;28;20244;-50
2023/07/25 05:41:38;;;;;;;5.43;4.93;;;23.50;45.10;;;;;;5073999;28;20622;-54
2023/07/25 05:44:04;;;;;;;5.00;4.33;;;23.50;45.30;;;;;;5073919;28;20494;-54
2023/07/25 05:46:30;;;;;;;9.50;4.63;;;23.50;45.10;;;;;;5074279;28;20503;-52
2023/07/25 05:48:55;;;;;;;4.33;3.50;;;23.40;45.20;;;;;;5074010;28;20493;-53
2023/07/25 05:51:21;;;;;;;8.67;5.33;;;23.50;45.50;;;;;;5073544;28;20200;-53
2023/07/25 05:53:47;;;;;;;7.20;4.43;;;23.50;45.30;;;;;;5073956;28;20177;-51
2023/07/25 05:56:13;;;;;;;6.83;4.73;;;23.50;46.50;;;;;;5074113;28;20455;-52
2023/07/25 05:58:40;;;;;;;5.90;4.40;;;23.50;46.00;;;;;;5073618;28;20419;-54
2023/07/25 06:01:06;;;;;;;6.70;4.60;;;23.50;46.00;;;;;;5073363;28;20192;-50
2023/07/25 06:03:32;;;;;;;5.90;4.80;;;23.60;45.40;;;;;;5073625;28;20418;-51
2023/07/25 06:05:58;;;;;;;5.70;5.20;;;23.60;45.00;;;;;;5073655;28;20418;-53
2023/07/25 06:08:24;;;;;;;10.93;5.00;;;23.70;45.40;;;;;;5073601;28;20646;-51
2023/07/25 06:10:50;;;;;;;8.23;4.20;;;23.70;44.90;;;;;;5073272;28;20193;-52
2023/07/25 06:13:15;;;;;;;5.20;4.57;;;23.70;44.70;;;;;;5073133;28;20470;-53
2023/07/25 06:15:41;;;;;;;4.87;4.47;;;23.80;45.00;;;;;;5073509;28;20195;-52
2023/07/25 06:18:07;;;;;;;6.20;5.60;;;23.80;45.20;;;;;;5073438;28;20237;-52
2023/07/25 06:20:33;;;;;;;9.60;5.50;;;23.80;45.50;;;;;;5072989;28;20261;-54
2023/07/25 06:23:00;;;;;;;6.20;4.77;;;23.90;45.40;;;;;;5073296;28;20169;-52
2023/07/25 06:25:26;;;;;;;6.30;4.00;;;23.90;45.40;;;;;;5073165;28;20460;-51
2023/07/25 06:27:52;;;;;;;7.50;4.47;;;23.90;45.30;;;;;;5072996;28;20415;-53
2023/07/25 06:30:18;;;;;;;4.27;3.87;;;23.90;44.80;;;;;;5073022;28;20430;-52
2023/07/25 06:32:44;;;;;;;5.70;3.67;;;23.90;45.40;;;;;;5073019;28;20450;-51
2023/07/25 06:35:10;;;;;;;10.70;4.90;;;23.90;45.00;;;;;;5072950;28;20407;-54
2023/07/25 06:37:36;;;;;;;7.67;5.60;;;23.90;45.00;;;;;;5072672;28;20173;-53
2023/07/25 06:40:03;;;;;;;6.87;5.57;;;23.90;45.60;;;;;;5072649;28;20452;-52
2023/07/25 06:42:29;;;;;;;7.40;5.77;;;23.90;44.90;;;;;;5072969;28;20507;-54
2023/07/25 06:44:56;;;;;;;8.17;5.40;;;23.90;44.80;;;;;;5073062;28;20419;-53
2023/07/25 06:47:22;;;;;;;6.20;5.70;;;23.90;44.80;;;;;;5072891;28;20421;-53
2023/07/25 06:49:48;;;;;;;5.13;4.63;;;23.90;44.50;;;;;;5072769;28;20506;-52
2023/07/25 06:52:14;;;;;;;7.57;6.40;;;23.90;44.30;;;;;;5072801;28;20557;-53
2023/07/25 06:54:41;;;;;;;7.53;4.87;;;24.00;44.10;;;;;;5072931;28;20820;-52
2023/07/25 06:57:07;;;;;;;5.93;4.87;;;24.00;44.20;;;;;;5072834;28;20589;-52
2023/07/25 06:59:32;;;;;;;8.47;5.43;;;24.00;43.50;;;;;;5072595;28;20411;-53
2023/07/25 07:01:58;;;;;;;7.60;4.70;;;24.00;43.50;;;;;;5072668;28;20799;-52
2023/07/25 07:04:24;;;;;;;8.03;6.00;;;24.00;43.70;;;;;;5072441;28;20209;-52
2023/07/25 07:06:50;;;;;;;13.07;6.40;;;24.00;43.80;;;;;;5072399;28;20472;-55
2023/07/25 07:09:16;;;;;;;7.83;5.60;;;23.90;44.00;;;;;;5072203;28;20184;-52
2023/07/25 07:11:41;;;;;;;6.77;6.13;;;24.00;43.90;;;;;;5072221;28;20698;-51
2023/07/25 07:14:08;;;;;;;8.33;5.90;;;24.00;43.60;;;;;;5072239;28;20187;-54
2023/07/25 07:16:34;;;;;;;8.20;5.93;;;24.00;44.30;;;;;;5072628;28;20414;-53
2023/07/25 07:19:00;;;;;;;7.10;5.43;;;24.10;44.80;;;;;;5072213;28;20445;-52
2023/07/25 07:21:26;;;;;;;11.03;6.30;;;24.10;44.50;;;;;;5072231;28;20565;-54
2023/07/25 07:23:51;;;;;;;12.83;6.03;;;24.20;44.80;;;;;;5072523;28;20164;-51
2023/07/25 07:26:17;;;;;;;7.30;5.43;;;24.20;44.70;;;;;;5072058;28;20168;-51
2023/07/25 07:28:43;;;;;;;13.70;6.83;;;24.30;44.70;;;;;;5072204;28;20195;-54
2023/07/25 07:31:11;;;;;;;7.63;5.13;;;24.30;44.30;;;;;;5071877;28;20264;-52
2023/07/25 07:33:37;;;;;;;6.13;4.50;;;24.40;43.80;;;;;;5072076;28;20462;-51
2023/07/25 07:36:03;;;;;;;6.53;5.93;;;24.40;44.10;;;;;;5072090;28;20911;-54
2023/07/25 07:38:28;;;;;;;6.60;5.40;;;24.50;44.10;;;;;;5072070;28;20160;-52
2023/07/25 07:40:54;;;;;;;6.43;5.10;;;24.50;43.90;;;;;;5071979;28;20434;-55
2023/07/25 07:43:20;;;;;;;8.00;5.40;;;24.60;43.60;;;;;;5072016;28;20560;-55
2023/07/25 07:45:46;;;;;;;4.87;4.40;;;24.60;43.40;;;;;;5071962;28;20180;-51
2023/07/25 07:48:12;;;;;;;7.80;5.20;;;24.70;43.50;;;;;;5071867;28;20184;-51
2023/07/25 07:50:38;;;;;;;9.43;5.73;;;24.70;43.40;;;;;;5070965;28;20434;-52
2023/07/25 07:53:04;;;;;;;10.80;6.20;;;24.70;43.50;;;;;;5071711;28;20443;-51
2023/07/25 07:55:29;;;;;;;5.50;5.00;;;24.70;43.40;;;;;;5071915;28;20176;-51
2023/07/25 07:57:55;;;;;;;8.80;4.67;;;24.80;42.00;;;;;;5071863;28;20481;-53
2023/07/25 08:00:23;;;;;;;6.63;5.57;;;24.80;42.00;;;;;;5071640;28;20931;-54
2023/07/25 08:02:50;;;;;;;7.27;5.13;;;24.80;41.60;;;;;;5071788;28;20229;-51
2023/07/25 08:05:16;;;;;;;8.77;5.03;;;24.80;42.10;;;;;;5071712;28;20497;-53
2023/07/25 08:07:42;;;;;;;5.10;4.50;;;24.80;42.60;;;;;;5071714;28;20427;-52
2023/07/25 08:10:08;;;;;;;5.93;5.37;;;24.80;41.80;;;;;;5071790;28;20419;-51
2023/07/25 08:12:34;;;;;;;8.53;4.70;;;24.80;41.50;;;;;;5071739;28;20208;-50
2023/07/25 08:15:01;;;;;;;6.23;5.10;;;24.70;41.40;;;;;;5071691;28;20533;-51
2023/07/25 08:17:26;;;;;;;7.03;5.20;;;24.70;42.00;;;;;;5071739;28;20406;-54
2023/07/25 08:19:52;;;;;;;6.83;4.57;;;24.70;41.80;;;;;;5071399;28;20486;-52
2023/07/25 08:22:18;;;;;;;4.03;3.63;;;24.70;41.90;;;;;;5071559;28;20619;-51
2023/07/25 08:24:44;;;;;;;5.40;3.80;;;24.70;41.50;;;;;;5071684;28;20176;-53
2023/07/25 08:27:10;;;;;;;5.70;4.20;;;24.70;41.70;;;;;;5071855;28;20176;-52
2023/07/25 08:29:43;;;;;;;8.20;4.73;;;24.80;41.60;;;;;;5071354;28;20931;-51
2023/07/25 08:32:09;;;;;;;3.97;3.57;;;24.80;41.00;;;;;;5071405;28;20536;-53
2023/07/25 08:34:36;;;;;;;5.50;3.43;;;24.80;40.00;;;;;;5071500;28;20907;-53
2023/07/25 08:37:03;;;;;;;4.97;4.27;;;24.80;39.70;;;;;;5071509;28;20406;-54
2023/07/25 08:39:29;;;;;;;5.67;4.17;;;24.70;40.50;;;;;;5071453;28;20447;-51
2023/07/25 08:41:57;;;;;;;6.60;4.50;;;24.70;41.40;;;;;;5071389;28;20478;-52
2023/07/25 08:44:24;;;;;;;5.97;3.80;;;24.70;40.90;;;;;;5071410;28;20263;-54
2023/07/25 08:46:52;;;;;;;4.67;3.50;;;24.80;40.40;;;;;;5071364;28;20414;-51
2023/07/25 08:49:23;;;;;;;5.70;3.97;;;24.80;40.70;;;;;;5071075;28;20421;-52
2023/07/25 08:51:52;;;;;;;5.73;3.70;;;24.80;40.50;;;;;;5071566;28;20462;-55
2023/07/25 08:54:33;;;;;;;3.37;3.07;;;24.80;40.20;;;;;;5071725;28;20438;-52
2023/07/25 08:56:59;;;;;;;5.97;3.80;;;24.90;40.00;;;;;;5071442;28;20461;-54
2023/07/25 08:59:26;;;;;;;7.67;3.87;;;24.90;40.10;;;;;;5071334;28;20899;-51
2023/07/25 09:01:52;;;;;;;4.20;2.60;;;25.00;40.80;;;;;;5073146;28;20635;-54
2023/07/25 09:04:24;;;;;;;4.70;3.20;;;25.10;39.60;;;;;;5074863;28;20410;-53
2023/07/25 09:06:51;;;;;;;4.10;3.70;;;25.20;38.90;;;;;;5075160;28;20755;-52
2023/07/25 09:09:17;;;;;;;3.30;2.73;;;25.30;38.80;;;;;;5074513;28;20775;-52
2023/07/25 09:11:44;;;;;;;5.33;3.20;;;25.40;39.90;;;;;;5073398;28;20466;-53
2023/07/25 09:14:11;;;;;;;6.77;3.27;;;25.50;39.00;;;;;;5074506;28;20560;-51
2023/07/25 09:16:37;;;;;;;3.50;3.07;;;25.50;39.60;;;;;;5074437;28;20819;-54
2023/07/25 09:19:03;;;;;;;2.63;2.33;;;25.50;39.10;;;;;;5074489;28;20469;-52
2023/07/25 09:21:29;;;;;;;5.93;3.60;;;25.70;40.10;;;;;;5074755;28;20442;-52
2023/07/25 09:23:59;;;;;;;5.13;3.90;;;25.90;38.10;;;;;;5074522;28;20923;-53
2023/07/25 09:26:27;;;;;;;4.77;2.90;;;26.00;37.30;;;;;;5074524;28;20572;-53
2023/07/25 09:28:57;;;;;;;5.70;2.43;;;26.10;36.50;;;;;;5074788;28;20497;-52
2023/07/25 09:31:25;;;;;;;3.90;3.50;;;26.10;36.30;;;;;;5073994;28;20442;-51
2023/07/25 09:33:53;;;;;;;3.97;3.57;;;26.10;36.30;;;;;;5074513;28;20470;-54
2023/07/25 09:36:19;;;;;;;6.33;2.80;;;26.20;36.40;;;;;;5074295;28;20506;-51
2023/07/25 09:38:50;;;;;;;4.70;3.17;;;26.20;37.70;;;;;;5074651;28;20500;-54
2023/07/25 09:41:16;;;;;;;6.07;4.40;;;26.30;38.30;;;;;;5074093;28;20438;-53
2023/07/25 09:43:42;;;;;;;4.80;3.10;;;26.40;38.70;;;;;;5074956;28;20461;-51
2023/07/25 09:46:09;;;;;;;6.03;4.27;;;26.50;38.10;;;;;;5074894;28;20402;-52
2023/07/25 09:48:35;;;;;;;5.67;3.83;;;26.60;38.00;;;;;;5074652;28;20889;-54
2023/07/25 09:51:02;;;;;;;5.10;3.70;;;26.70;38.20;;;;;;5073977;28;20962;-52
2023/07/25 09:53:29;;;;;;;4.93;4.10;;;26.80;38.50;;;;;;5074409;28;20235;-54
2023/07/25 09:55:56;;;;;;;4.30;3.60;;;26.80;38.10;;;;;;5074588;28;20422;-55
2023/07/25 09:58:22;;;;;;;4.60;3.90;;;26.90;37.20;;;;;;5074358;28;20453;-51
2023/07/25 10:00:49;;;;;;;6.47;5.07;;;26.90;36.20;;;;;;5074169;28;20935;-51
2023/07/25 10:03:17;;;;;;;10.10;5.03;;;26.90;35.80;;;;;;5074575;28;20407;-54
2023/07/25 10:05:44;;;;;;;5.20;4.57;;;27.00;36.30;;;;;;5074390;28;20423;-54
2023/07/25 10:08:11;;;;;;;5.80;5.23;;;27.00;36.50;;;;;;5074523;28;20414;-51
2023/07/25 10:10:38;;;;;;;5.67;4.50;;;27.00;35.80;;;;;;5073757;28;20542;-53
2023/07/25 10:13:03;;;;;;;5.53;4.53;;;27.10;35.60;;;;;;5073143;28;21035;-53
2023/07/25 10:15:30;;;;;;;5.17;4.77;;;27.10;36.20;;;;;;5073985;28;20407;-53
2023/07/25 10:18:19;;;;;;;9.80;4.33;;;27.10;36.10;;;;;;5074496;28;20410;-54
2023/07/25 10:20:45;;;;;;;6.00;3.83;;;27.10;35.70;;;;;;5073956;28;21139;-52
2023/07/25 10:23:11;;;;;;;5.83;5.23;;;27.10;36.10;;;;;;5073834;28;20422;-54
2023/07/25 10:25:38;;;;;;;5.93;4.40;;;27.10;36.10;;;;;;5074087;28;20183;-54
2023/07/25 10:28:04;;;;;;;4.97;4.47;;;27.20;36.00;;;;;;5073649;28;20446;-52
2023/07/25 10:30:33;;;;;;;5.27;4.77;;;27.20;35.40;;;;;;5073609;28;20427;-52
2023/07/25 10:33:03;;;;;;;5.57;4.10;;;27.30;35.90;;;;;;5073685;28;20857;-54
2023/07/25 10:35:56;;;;;;;5.17;4.60;;;27.30;35.10;;;;;;5073626;28;20417;-52
2023/07/25 10:38:42;;;;;;;4.73;3.70;;;27.30;33.70;;;;;;5073545;28;20419;-54
2023/07/25 10:41:08;;;;;;;4.70;3.70;;;27.30;34.50;;;;;;5073448;28;20422;-51
2023/07/25 10:43:51;;;;;;;5.03;4.53;;;27.20;35.10;;;;;;5073361;28;20429;-54
2023/07/25 10:46:18;;;;;;;7.00;4.60;;;27.20;34.60;;;;;;5073373;28;20686;-50
2023/07/25 10:48:49;;;;;;;4.87;4.47;;;27.20;34.50;;;;;;5073172;28;20406;-54
2023/07/25 10:51:17;;;;;;;5.70;4.40;;;27.20;33.50;;;;;;5072980;28;20458;-51
2023/07/25 10:54:04;;;;;;;5.53;3.93;;;27.20;34.40;;;;;;5073033;28;20465;-54
2023/07/25 10:56:30;;;;;;;5.10;4.70;;;27.10;35.60;;;;;;5072970;28;20826;-51
2023/07/25 10:59:12;;;;;;;7.43;5.23;;;27.00;35.70;;;;;;5073149;28;20446;-53
2023/07/25 11:01:47;;;;;;;5.23;4.47;;;26.90;35.90;;;;;;5073042;28;20196;-51
2023/07/25 11:04:30;;;;;;;5.00;4.00;;;26.80;36.10;;;;;;5073119;28;20490;-54
2023/07/25 11:06:58;;;;;;;4.40;4.00;;;26.70;36.00;;;;;;5072669;28;20399;-52
2023/07/25 11:09:25;;;;;;;5.40;4.60;;;26.60;36.60;;;;;;5072770;28;20394;-51
2023/07/25 11:11:53;;;;;;;5.83;4.60;;;26.50;36.60;;;;;;5072949;28;20463;-53
2023/07/25 11:14:20;;;;;;;5.10;4.60;;;26.40;36.70;;;;;;5072458;28;20918;-51
2023/07/25 11:16:49;;;;;;;5.37;4.87;;;26.30;37.00;;;;;;5072924;28;20411;-54
2023/07/25 11:19:15;;;;;;;5.33;4.40;;;26.30;37.10;;;;;;5072533;28;20456;-53
2023/07/25 11:21:43;;;;;;;4.53;3.83;;;26.40;37.10;;;;;;5072831;28;20427;-54
2023/07/25 11:24:10;;;;;;;6.00;4.53;;;26.40;36.90;;;;;;5072214;28;20418;-51
2023/07/25 11:26:37;;;;;;;4.20;3.90;;;26.40;37.20;;;;;;5072514;28;20415;-54
2023/07/25 11:29:10;;;;;;;6.00;4.77;;;26.50;36.40;;;;;;5072428;28;20419;-55
2023/07/25 11:31:41;;;;;;;5.30;4.80;;;26.50;36.60;;;;;;5072497;28;20431;-51
2023/07/25 11:34:12;;;;;;;5.07;4.57;;;26.50;37.00;;;;;;5072465;28;20415;-51
2023/07/25 11:36:39;;;;;;;4.43;4.03;;;26.60;36.70;;;;;;5072556;28;20438;-52
2023/07/25 11:39:09;;;;;;;5.53;4.90;;;26.70;37.30;;;;;;5072851;28;20415;-50
2023/07/25 11:41:37;;;;;;;7.03;4.00;;;26.80;37.20;;;;;;5072571;28;20517;-53
2023/07/25 11:44:11;;;;;;;5.57;4.63;;;26.90;36.60;;;;;;5072632;28;20413;-54
2023/07/25 11:46:40;;;;;;;5.00;4.60;;;27.00;37.30;;;;;;5072282;28;20402;-53
2023/07/25 11:49:07;;;;;;;4.87;4.10;;;27.10;37.20;;;;;;5072457;28;20456;-51
2023/07/25 11:51:34;;;;;;;6.30;5.17;;;27.20;36.50;;;;;;5072366;28;20445;-51
2023/07/25 11:54:00;;;;;;;5.83;5.20;;;27.30;34.60;;;;;;5072440;28;20414;-53
2023/07/25 11:56:26;;;;;;;5.20;4.80;;;27.30;34.40;;;;;;5072453;28;20438;-53
2023/07/25 11:58:52;;;;;;;5.03;4.53;;;27.30;35.00;;;;;;5072507;28;20749;-52
2023/07/25 12:01:18;;;;;;;5.30;4.87;;;27.20;35.80;;;;;;5072086;28;20430;-54
2023/07/25 12:03:49;;;;;;;5.37;4.87;;;27.10;35.00;;;;;;5072466;28;20227;-52
2023/07/25 12:06:15;;;;;;;5.50;5.00;;;27.00;35.10;;;;;;5072286;28;20423;-51
2023/07/25 12:08:44;;;;;;;6.67;4.90;;;27.00;34.70;;;;;;5072339;28;20411;-54
2023/07/25 12:11:12;;;;;;;5.40;4.93;;;26.90;35.00;;;;;;5071835;28;20430;-54
2023/07/25 12:13:52;;;;;;;5.27;4.87;;;27.00;35.40;;;;;;5071853;28;20550;-54
2023/07/25 12:16:31;;;;;;;4.57;4.03;;;27.10;35.90;;;;;;5072161;28;20410;-52
2023/07/25 12:19:03;;;;;;;5.37;3.73;;;27.20;35.90;;;;;;5071891;28;20414;-52
2023/07/25 12:21:31;;;;;;;5.00;4.03;;;27.20;36.10;;;;;;5071930;28;20426;-55
2023/07/25 12:23:59;;;;;;;4.27;3.77;;;27.30;35.90;;;;;;5072068;28;20422;-52
2023/07/25 12:26:25;;;;;;;3.87;3.57;;;27.30;36.30;;;;;;5072323;28;20411;-52
2023/07/25 12:28:52;;;;;;;5.10;4.33;;;27.30;35.10;;;;;;5072236;28;20453;-53
2023/07/25 12:31:18;;;;;;;5.30;4.03;;;27.30;34.20;;;;;;5071723;28;20426;-53
2023/07/25 12:33:47;;;;;;;4.57;4.17;;;27.20;34.70;;;;;;5072176;28;20496;-52
2023/07/25 12:36:14;;;;;;;7.03;4.00;;;27.10;34.70;;;;;;5073040;28;20452;-52
2023/07/25 12:38:40;;;;;;;5.17;2.60;;;27.00;34.30;;;;;;5075664;28;20427;-51
2023/07/25 12:41:06;;;;;;;3.43;2.90;;;27.00;34.90;;;;;;5075657;28;20469;-52
2023/07/25 12:43:32;;;;;;;3.70;3.40;;;26.90;34.70;;;;;;5075920;28;20184;-54